createdAt,value
2023-04-21T00:00:17.974Z,0.52
2023-04-21T00:01:17.958Z,0.52
2023-04-21T00:02:17.982Z,0.51
2023-04-21T00:03:18.175Z,0.51
2023-04-21T00:04:18.155Z,0.52
2023-04-21T00:05:18.192Z,0.52
2023-04-21T00:06:17.978Z,0.52
2023-04-21T00:07:17.937Z,0.53
2023-04-21T00:08:17.971Z,0.52
2023-04-21T00:09:18.152Z,0.52
2023-04-21T00:10:17.964Z,0.52
2023-04-21T00:11:17.988Z,0.53
2023-04-21T00:12:17.975Z,0.52
2023-04-21T00:13:17.996Z,0.52
2023-04-21T00:14:17.988Z,0.51
2023-04-21T00:15:17.960Z,0.52
2023-04-21T00:16:18.025Z,0.52
2023-04-21T00:17:17.980Z,0.50
2023-04-21T00:18:17.994Z,0.51
2023-04-21T00:19:18.249Z,0.51
2023-04-21T00:20:18.020Z,0.51
2023-04-21T00:21:18.020Z,0.51
2023-04-21T00:22:18.025Z,0.51
2023-04-21T00:23:18.003Z,0.50
2023-04-21T00:24:18.018Z,0.51
2023-04-21T00:25:18.005Z,0.51
2023-04-21T00:26:18.012Z,0.52
2023-04-21T00:27:18.028Z,0.51
2023-04-21T00:28:18.042Z,0.51
2023-04-21T00:29:18.218Z,0.52
2023-04-21T00:30:18.059Z,0.50
2023-04-21T00:31:18.077Z,0.50
2023-04-21T00:32:18.089Z,0.51
2023-04-21T00:33:18.070Z,0.52
2023-04-21T00:34:18.091Z,0.51
2023-04-21T00:35:18.083Z,0.51
2023-04-21T00:36:18.117Z,0.50
2023-04-21T00:37:18.098Z,0.51
2023-04-21T00:38:18.098Z,0.51
2023-04-21T00:39:18.358Z,0.51
2023-04-21T00:40:18.115Z,0.52
2023-04-21T00:41:18.119Z,0.51
2023-04-21T00:42:18.129Z,0.51
2023-04-21T00:43:18.164Z,0.51
2023-04-21T00:44:18.160Z,0.51
2023-04-21T00:45:18.200Z,0.51
2023-04-21T00:46:18.232Z,0.53
2023-04-21T00:47:18.281Z,0.51
2023-04-21T00:48:18.242Z,0.52
2023-04-21T00:49:18.545Z,0.50
2023-04-21T00:50:18.223Z,0.51
2023-04-21T00:51:18.221Z,0.51
2023-04-21T00:52:18.233Z,0.52
2023-04-21T00:53:18.242Z,0.51
2023-04-21T00:54:18.257Z,0.52
2023-04-21T00:55:18.263Z,0.50
2023-04-21T00:56:18.265Z,0.51
2023-04-21T00:57:18.281Z,0.50
2023-04-21T00:58:18.278Z,0.51
2023-04-21T00:59:18.465Z,0.51
2023-04-21T01:00:18.326Z,0.52
2023-04-21T01:01:18.332Z,0.51
2023-04-21T01:02:18.369Z,0.51
2023-04-21T01:03:18.390Z,0.51
2023-04-21T01:04:18.364Z,0.51
2023-04-21T01:05:18.298Z,0.51
2023-04-21T01:06:18.306Z,0.50
2023-04-21T01:07:18.312Z,0.51
2023-04-21T01:08:18.313Z,0.50
2023-04-21T01:09:18.373Z,0.51
2023-04-21T01:10:18.290Z,0.51
2023-04-21T01:11:18.290Z,0.52
2023-04-21T01:12:18.271Z,0.51
2023-04-21T01:13:18.276Z,0.51
2023-04-21T01:14:18.279Z,0.51
2023-04-21T01:15:18.259Z,0.51
2023-04-21T01:16:18.323Z,0.51
2023-04-21T01:17:18.273Z,0.51
2023-04-21T01:18:18.302Z,0.51
2023-04-21T01:19:18.512Z,0.51
2023-04-21T01:20:18.261Z,0.51
2023-04-21T01:21:18.277Z,0.50
2023-04-21T01:22:18.300Z,0.50
2023-04-21T01:23:18.263Z,0.50
2023-04-21T01:24:18.265Z,0.52
2023-04-21T01:25:18.305Z,0.52
2023-04-21T01:26:18.278Z,0.52
2023-04-21T01:27:18.241Z,0.52
2023-04-21T01:28:18.266Z,0.51
2023-04-21T01:29:18.476Z,0.52
2023-04-21T01:30:18.271Z,0.50
2023-04-21T01:31:18.300Z,0.52
2023-04-21T01:32:18.316Z,0.52
2023-04-21T01:33:18.340Z,0.52
2023-04-21T01:34:18.305Z,0.51
2023-04-21T01:35:18.259Z,0.51
2023-04-21T01:36:18.272Z,0.51
2023-04-21T01:37:18.280Z,0.51
2023-04-21T01:38:19.589Z,0.51
2023-04-21T01:39:18.530Z,0.50
2023-04-21T01:40:18.269Z,0.51
2023-04-21T01:41:18.280Z,0.52
2023-04-21T01:42:18.310Z,0.51
2023-04-21T01:43:18.321Z,0.51
2023-04-21T01:44:18.301Z,0.51
2023-04-21T01:45:18.343Z,0.50
2023-04-21T01:46:18.346Z,0.51
2023-04-21T01:47:18.313Z,0.50
2023-04-21T01:48:18.357Z,0.51
2023-04-21T01:49:18.614Z,0.52
2023-04-21T01:50:18.331Z,0.50
2023-04-21T01:51:18.328Z,0.52
2023-04-21T01:52:18.329Z,0.51
2023-04-21T01:53:18.338Z,0.51
2023-04-21T01:54:18.332Z,0.51
2023-04-21T01:55:18.305Z,0.51
2023-04-21T01:56:18.353Z,0.51
2023-04-21T01:57:18.403Z,0.51
2023-04-21T01:58:18.334Z,0.50
2023-04-21T01:59:18.534Z,0.50
2023-04-21T02:00:18.341Z,0.51
2023-04-21T02:01:18.431Z,0.51
2023-04-21T02:02:18.437Z,0.50
2023-04-21T02:03:18.425Z,0.51
2023-04-21T02:04:18.548Z,0.51
2023-04-21T02:05:18.394Z,0.52
2023-04-21T02:06:18.426Z,0.51
2023-04-21T02:07:18.381Z,0.51
2023-04-21T02:08:18.374Z,0.51
2023-04-21T02:09:18.759Z,0.50
2023-04-21T02:10:18.394Z,0.51
2023-04-21T02:11:18.392Z,0.50
2023-04-21T02:12:18.396Z,0.51
2023-04-21T02:13:18.392Z,0.52
2023-04-21T02:14:18.386Z,0.51
2023-04-21T02:15:18.387Z,0.51
2023-04-21T02:16:18.412Z,0.51
2023-04-21T02:17:18.395Z,0.51
2023-04-21T02:18:18.395Z,0.51
2023-04-21T02:19:18.802Z,0.51
2023-04-21T02:20:18.431Z,0.51
2023-04-21T02:21:18.425Z,0.51
2023-04-21T02:22:18.391Z,0.51
2023-04-21T02:23:18.398Z,0.51
2023-04-21T02:24:18.417Z,0.52
2023-04-21T02:25:18.410Z,0.51
2023-04-21T02:26:18.423Z,0.52
2023-04-21T02:27:18.439Z,0.50
2023-04-21T02:28:18.419Z,0.50
2023-04-21T02:29:18.667Z,0.51
2023-04-21T02:30:18.453Z,0.52
2023-04-21T02:31:18.449Z,0.51
2023-04-21T02:32:25.457Z,0.50
2023-04-21T02:33:19.401Z,0.51
2023-04-21T02:34:18.430Z,0.51
2023-04-21T02:35:18.381Z,0.51
2023-04-21T02:36:18.387Z,0.51
2023-04-21T02:37:18.400Z,0.51
2023-04-21T02:38:18.412Z,0.51
2023-04-21T02:39:18.678Z,0.51
2023-04-21T02:40:18.434Z,0.52
2023-04-21T02:41:18.381Z,0.51
2023-04-21T02:42:18.362Z,0.51
2023-04-21T02:43:18.335Z,0.50
2023-04-21T02:44:18.325Z,0.51
2023-04-21T02:45:18.321Z,0.51
2023-04-21T02:46:18.413Z,0.51
2023-04-21T02:47:18.348Z,0.51
2023-04-21T02:48:18.298Z,0.50
2023-04-21T02:49:18.497Z,0.51
2023-04-21T02:50:18.320Z,0.51
2023-04-21T02:51:18.294Z,0.51
2023-04-21T02:52:18.297Z,0.51
2023-04-21T02:53:18.257Z,0.51
2023-04-21T02:54:18.233Z,0.51
2023-04-21T02:55:18.265Z,0.52
2023-04-21T02:56:18.277Z,0.51
2023-04-21T02:57:18.232Z,0.51
2023-04-21T02:58:18.239Z,0.52
2023-04-21T02:59:18.565Z,0.52
2023-04-21T03:00:18.211Z,0.50
2023-04-21T03:01:18.304Z,0.51
2023-04-21T03:02:18.215Z,0.52
2023-04-21T03:03:18.324Z,0.51
2023-04-21T03:04:18.251Z,0.52
2023-04-21T03:05:18.221Z,0.51
2023-04-21T03:06:18.150Z,0.52
2023-04-21T03:07:18.172Z,0.51
2023-04-21T03:08:18.208Z,0.52
2023-04-21T03:09:18.435Z,0.51
2023-04-21T03:10:18.215Z,0.51
2023-04-21T03:11:18.233Z,0.51
2023-04-21T03:12:18.273Z,0.51
2023-04-21T03:13:18.303Z,0.50
2023-04-21T03:14:18.253Z,0.51
2023-04-21T03:15:18.316Z,0.51
2023-04-21T03:16:18.365Z,0.51
2023-04-21T03:17:18.393Z,0.52
2023-04-21T03:18:18.346Z,0.51
2023-04-21T03:19:18.730Z,0.51
2023-04-21T03:20:18.368Z,0.51
2023-04-21T03:21:18.393Z,0.51
2023-04-21T03:22:18.442Z,0.51
2023-04-21T03:23:18.462Z,0.51
2023-04-21T03:24:18.452Z,0.51
2023-04-21T03:25:18.483Z,0.50
2023-04-21T03:26:18.507Z,0.51
2023-04-21T03:27:18.548Z,0.50
2023-04-21T03:28:18.551Z,0.51
2023-04-21T03:29:18.895Z,0.51
2023-04-21T03:30:18.623Z,0.51
2023-04-21T03:31:18.631Z,0.51
2023-04-21T03:32:18.716Z,0.52
2023-04-21T03:33:18.671Z,0.51
2023-04-21T03:34:18.716Z,0.51
2023-04-21T03:35:18.751Z,0.50
2023-04-21T03:36:18.777Z,0.51
2023-04-21T03:37:18.778Z,0.52
2023-04-21T03:38:18.791Z,0.51
2023-04-21T03:39:20.106Z,0.51
2023-04-21T03:40:18.831Z,0.51
2023-04-21T03:41:18.890Z,0.51
2023-04-21T03:42:18.896Z,0.51
2023-04-21T03:43:18.920Z,0.50
2023-04-21T03:44:18.945Z,0.51
2023-04-21T03:45:18.963Z,0.51
2023-04-21T03:46:19.035Z,0.51
2023-04-21T03:47:19.014Z,0.51
2023-04-21T03:48:19.018Z,0.51
2023-04-21T03:49:19.322Z,0.50
2023-04-21T03:50:19.069Z,0.51
2023-04-21T03:51:19.125Z,0.50
2023-04-21T03:52:19.112Z,0.50
2023-04-21T03:53:19.112Z,0.51
2023-04-21T03:54:19.140Z,0.51
2023-04-21T03:55:19.171Z,0.50
2023-04-21T03:56:19.210Z,0.51
2023-04-21T03:57:19.220Z,0.51
2023-04-21T03:58:19.238Z,0.51
2023-04-21T03:59:19.435Z,0.52
2023-04-21T04:00:19.325Z,0.51
2023-04-21T04:01:19.340Z,0.52
2023-04-21T04:02:19.369Z,0.51
2023-04-21T04:03:21.886Z,0.51
2023-04-21T04:04:19.555Z,0.51
2023-04-21T04:05:19.388Z,0.51
2023-04-21T04:06:19.333Z,0.51
2023-04-21T04:07:19.348Z,0.51
2023-04-21T04:08:19.353Z,0.52
2023-04-21T04:09:19.736Z,0.51
2023-04-21T04:10:19.328Z,0.51
2023-04-21T04:11:19.275Z,0.51
2023-04-21T04:12:19.318Z,0.51
2023-04-21T04:13:19.317Z,0.51
2023-04-21T04:14:19.283Z,0.51
2023-04-21T04:15:19.292Z,0.50
2023-04-21T04:16:19.272Z,0.50
2023-04-21T04:17:19.246Z,0.51
2023-04-21T04:18:19.272Z,0.50
2023-04-21T04:19:19.545Z,0.50
2023-04-21T04:20:19.277Z,0.51
2023-04-21T04:21:19.246Z,0.51
2023-04-21T04:22:19.239Z,0.51
2023-04-21T04:23:19.215Z,0.51
2023-04-21T04:24:19.206Z,0.50
2023-04-21T04:25:19.209Z,0.52
2023-04-21T04:26:19.219Z,0.51
2023-04-21T04:27:19.231Z,0.52
2023-04-21T04:28:19.185Z,0.52
2023-04-21T04:29:19.414Z,0.51
2023-04-21T04:30:19.201Z,0.50
2023-04-21T04:31:19.238Z,0.51
2023-04-21T04:32:19.161Z,0.51
2023-04-21T04:33:19.139Z,0.51
2023-04-21T04:34:19.253Z,0.51
2023-04-21T04:35:19.120Z,0.51
2023-04-21T04:36:19.169Z,0.52
2023-04-21T04:37:19.132Z,0.51
2023-04-21T04:38:19.154Z,0.51
2023-04-21T04:39:19.325Z,0.51
2023-04-21T04:40:19.105Z,0.51
2023-04-21T04:41:19.115Z,0.51
2023-04-21T04:42:19.116Z,0.51
2023-04-21T04:43:19.176Z,0.51
2023-04-21T04:44:19.367Z,0.51
2023-04-21T04:45:19.196Z,0.51
2023-04-21T04:46:19.306Z,0.50
2023-04-21T04:47:19.275Z,0.51
2023-04-21T04:48:19.276Z,0.51
2023-04-21T04:49:19.358Z,0.51
2023-04-21T04:50:19.346Z,0.51
2023-04-21T04:51:19.372Z,0.52
2023-04-21T04:52:19.455Z,0.51
2023-04-21T04:53:19.462Z,0.50
2023-04-21T04:54:19.679Z,0.50
2023-04-21T04:55:19.507Z,0.50
2023-04-21T04:56:19.545Z,0.50
2023-04-21T04:57:19.631Z,0.50
2023-04-21T04:58:19.678Z,0.50
2023-04-21T04:59:19.742Z,0.51
2023-04-21T05:00:19.787Z,0.51
2023-04-21T05:01:19.836Z,0.51
2023-04-21T05:02:20.090Z,0.50
2023-04-21T05:03:20.092Z,0.50
2023-04-21T05:04:20.593Z,0.50
2023-04-21T05:05:19.961Z,0.50
2023-04-21T05:06:19.944Z,0.51
2023-04-21T05:07:20.016Z,0.50
2023-04-21T05:08:19.978Z,0.50
2023-04-21T05:09:19.956Z,0.51
2023-04-21T05:10:19.974Z,0.51
2023-04-21T05:11:19.987Z,0.50
2023-04-21T05:12:19.980Z,0.50
2023-04-21T05:13:19.987Z,0.50
2023-04-21T05:14:20.266Z,0.50
2023-04-21T05:15:19.988Z,0.50
2023-04-21T05:16:20.039Z,0.51
2023-04-21T05:17:19.999Z,0.51
2023-04-21T05:18:19.970Z,0.54
2023-04-21T05:19:20.022Z,0.53
2023-04-21T05:20:20.092Z,0.50
2023-04-21T05:21:20.146Z,0.50
2023-04-21T05:22:20.309Z,0.51
2023-04-21T05:23:20.293Z,0.52
2023-04-21T05:24:20.554Z,0.51
2023-04-21T05:25:20.480Z,0.50
2023-04-21T05:26:20.488Z,0.50
2023-04-21T05:27:20.528Z,0.51
2023-04-21T05:28:20.510Z,0.51
2023-04-21T05:29:20.501Z,0.51
2023-04-21T05:30:20.518Z,0.50
2023-04-21T05:31:20.521Z,0.51
2023-04-21T05:32:20.781Z,0.52
2023-04-21T05:33:20.691Z,0.52
2023-04-21T05:34:20.832Z,0.55
2023-04-21T05:35:20.748Z,0.58
2023-04-21T05:36:20.836Z,0.62
2023-04-21T05:37:20.840Z,0.61
2023-04-21T05:38:20.881Z,0.55
2023-04-21T05:39:20.853Z,0.50
2023-04-21T05:40:20.926Z,0.50
2023-04-21T05:41:20.912Z,0.53
2023-04-21T05:42:20.928Z,0.55
2023-04-21T05:43:20.914Z,0.56
2023-04-21T05:44:21.183Z,0.56
2023-04-21T05:45:21.010Z,0.53
2023-04-21T05:46:21.077Z,0.53
2023-04-21T05:47:21.258Z,0.54
2023-04-21T05:48:21.216Z,0.54
2023-04-21T05:49:21.193Z,0.53
2023-04-21T05:50:21.207Z,0.52
2023-04-21T05:51:21.180Z,0.54
2023-04-21T05:52:21.189Z,0.55
2023-04-21T05:53:21.196Z,0.56
2023-04-21T05:54:21.476Z,0.55
2023-04-21T05:55:21.206Z,0.56
2023-04-21T05:56:21.192Z,0.54
2023-04-21T05:57:21.289Z,0.57
2023-04-21T05:58:21.307Z,0.58
2023-04-21T05:59:21.336Z,0.59
2023-04-21T06:00:21.415Z,0.58
2023-04-21T06:01:21.482Z,0.61
2023-04-21T06:02:21.645Z,0.61
2023-04-21T06:03:21.857Z,0.60
2023-04-21T06:04:22.219Z,0.61
2023-04-21T06:05:21.702Z,0.62
2023-04-21T06:06:21.721Z,0.64
2023-04-21T06:07:21.821Z,0.61
2023-04-21T06:08:21.872Z,0.62
2023-04-21T06:09:21.903Z,0.62
2023-04-21T06:10:21.950Z,0.65
2023-04-21T06:11:21.993Z,0.66
2023-04-21T06:12:22.979Z,0.67
2023-04-21T06:13:21.995Z,0.64
2023-04-21T06:14:22.129Z,0.66
2023-04-21T06:15:21.950Z,0.66
2023-04-21T06:16:22.011Z,0.69
2023-04-21T06:17:21.950Z,0.68
2023-04-21T06:18:22.830Z,0.69
2023-04-21T06:19:21.917Z,0.69
2023-04-21T06:20:21.936Z,0.69
2023-04-21T06:21:21.885Z,0.68
2023-04-21T06:22:21.896Z,0.69
2023-04-21T06:23:21.917Z,0.69
2023-04-21T06:24:22.034Z,0.70
2023-04-21T06:25:21.874Z,0.69
2023-04-21T06:26:21.963Z,0.68
2023-04-21T06:27:21.898Z,0.68
2023-04-21T06:28:21.857Z,0.69
2023-04-21T06:29:21.862Z,0.68
2023-04-21T06:30:21.876Z,0.67
2023-04-21T06:31:21.940Z,0.66
2023-04-21T06:32:21.966Z,0.67
2023-04-21T06:33:21.949Z,0.67
2023-04-21T06:34:22.162Z,0.66
2023-04-21T06:35:21.986Z,0.63
2023-04-21T06:36:21.985Z,0.64
2023-04-21T06:37:22.006Z,0.64
2023-04-21T06:38:22.014Z,0.63
2023-04-21T06:39:22.026Z,0.63
2023-04-21T06:40:22.037Z,0.61
2023-04-21T06:41:24.245Z,0.62
2023-04-21T06:42:22.027Z,0.62
2023-04-21T06:43:22.032Z,0.63
2023-04-21T06:44:22.175Z,0.61
2023-04-21T06:45:22.025Z,0.60
2023-04-21T06:46:22.098Z,0.60
2023-04-21T06:47:22.090Z,0.60
2023-04-21T06:48:22.020Z,0.60
2023-04-21T06:49:22.094Z,0.60
2023-04-21T06:50:22.007Z,0.59
2023-04-21T06:51:21.989Z,0.59
2023-04-21T06:52:21.987Z,0.57
2023-04-21T06:53:21.984Z,0.60
2023-04-21T06:54:21.987Z,0.58
2023-04-21T06:55:21.971Z,0.60
2023-04-21T06:56:21.941Z,0.60
2023-04-21T06:57:21.949Z,0.61
2023-04-21T06:58:21.945Z,0.62
2023-04-21T06:59:22.133Z,0.62
2023-04-21T07:00:21.960Z,0.62
2023-04-21T07:01:21.944Z,0.62
2023-04-21T07:02:22.019Z,0.63
2023-04-21T07:03:22.146Z,0.65
2023-04-21T07:04:21.933Z,0.66
2023-04-21T07:05:21.889Z,0.67
2023-04-21T07:06:21.906Z,0.65
2023-04-21T07:07:21.903Z,0.67
2023-04-21T07:08:21.886Z,0.69
2023-04-21T07:09:22.035Z,0.71
2023-04-21T07:10:21.849Z,0.78
2023-04-21T07:11:21.865Z,0.78
2023-04-21T07:12:21.863Z,0.76
2023-04-21T07:13:21.862Z,0.76
2023-04-21T07:14:21.828Z,0.75
2023-04-21T07:15:21.825Z,0.74
2023-04-21T07:16:21.895Z,0.75
2023-04-21T07:17:21.841Z,0.74
2023-04-21T07:18:21.802Z,0.74
2023-04-21T07:19:21.908Z,0.73
2023-04-21T07:20:21.805Z,0.72
2023-04-21T07:21:21.795Z,0.72
2023-04-21T07:22:21.848Z,0.70
2023-04-21T07:23:21.771Z,0.72
2023-04-21T07:24:21.771Z,0.69
2023-04-21T07:25:21.790Z,0.70
2023-04-21T07:26:21.734Z,0.68
2023-04-21T07:27:21.761Z,0.68
2023-04-21T07:28:21.866Z,0.69
2023-04-21T07:29:21.839Z,0.68
2023-04-21T07:30:21.746Z,0.69
2023-04-21T07:31:21.785Z,0.69
2023-04-21T07:32:21.787Z,0.68
2023-04-21T07:33:21.700Z,0.69
2023-04-21T07:34:21.700Z,0.68
2023-04-21T07:35:21.719Z,0.68
2023-04-21T07:36:22.700Z,0.68
2023-04-21T07:37:21.742Z,0.68
2023-04-21T07:38:21.689Z,0.68
2023-04-21T07:39:21.874Z,0.68
2023-04-21T07:40:21.665Z,0.68
2023-04-21T07:41:21.724Z,0.69
2023-04-21T07:42:21.634Z,0.68
2023-04-21T07:43:21.643Z,0.67
2023-04-21T07:44:21.665Z,0.69
2023-04-21T07:45:21.628Z,0.68
2023-04-21T07:46:21.736Z,0.69
2023-04-21T07:47:21.652Z,0.69
2023-04-21T07:48:21.640Z,0.69
2023-04-21T07:49:21.768Z,0.67
2023-04-21T07:50:21.610Z,0.66
2023-04-21T07:51:21.571Z,0.68
2023-04-21T07:52:21.570Z,0.66
2023-04-21T07:53:21.577Z,0.65
2023-04-21T07:54:21.618Z,0.65
2023-04-21T07:55:21.587Z,0.64
2023-04-21T07:56:21.605Z,0.65
2023-04-21T07:57:21.615Z,0.63
2023-04-21T07:58:21.647Z,0.63
2023-04-21T07:59:21.805Z,0.61
2023-04-21T08:00:21.732Z,0.61
2023-04-21T08:01:21.800Z,0.60
2023-04-21T08:02:21.755Z,0.59
2023-04-21T08:03:24.464Z,0.59
2023-04-21T08:04:21.951Z,0.60
2023-04-21T08:05:21.811Z,0.59
2023-04-21T08:06:21.785Z,0.59
2023-04-21T08:07:21.803Z,0.58
2023-04-21T08:08:21.717Z,0.58
2023-04-21T08:09:22.022Z,0.58
2023-04-21T08:10:22.418Z,0.56
2023-04-21T08:11:21.720Z,0.56
2023-04-21T08:12:21.694Z,0.55
2023-04-21T08:13:21.719Z,0.56
2023-04-21T08:14:21.771Z,0.54
2023-04-21T08:15:21.660Z,0.54
2023-04-21T08:16:21.716Z,0.53
2023-04-21T08:17:21.706Z,0.53
2023-04-21T08:18:22.718Z,0.53
2023-04-21T08:19:21.874Z,0.53
2023-04-21T08:20:21.671Z,0.53
2023-04-21T08:21:21.737Z,0.52
2023-04-21T08:22:21.700Z,0.52
2023-04-21T08:23:21.702Z,0.52
2023-04-21T08:24:21.875Z,0.51
2023-04-21T08:25:21.600Z,0.52
2023-04-21T08:26:21.615Z,0.52
2023-04-21T08:27:21.621Z,0.51
2023-04-21T08:28:21.588Z,0.50
2023-04-21T08:29:21.570Z,0.52
2023-04-21T08:30:21.621Z,0.51
2023-04-21T08:31:21.619Z,0.50
2023-04-21T08:32:21.545Z,0.51
2023-04-21T08:33:21.612Z,0.51
2023-04-21T08:34:23.601Z,0.51
2023-04-21T08:35:21.567Z,0.51
2023-04-21T08:36:28.910Z,0.51
2023-04-21T08:37:22.564Z,0.51
2023-04-21T08:38:21.563Z,0.51
2023-04-21T08:39:21.873Z,0.50
2023-04-21T08:40:21.504Z,0.51
2023-04-21T08:41:21.512Z,0.50
2023-04-21T08:42:21.528Z,0.51
2023-04-21T08:43:21.449Z,0.51
2023-04-21T08:44:21.816Z,0.51
2023-04-21T08:45:21.477Z,0.50
2023-04-21T08:46:21.558Z,0.50
2023-04-21T08:47:21.478Z,0.53
2023-04-21T08:48:21.468Z,0.52
2023-04-21T08:49:21.850Z,0.50
2023-04-21T08:50:21.620Z,0.50
2023-04-21T08:51:21.444Z,0.52
2023-04-21T08:52:21.421Z,0.53
2023-04-21T08:53:21.420Z,0.53
2023-04-21T08:54:21.439Z,0.53
2023-04-21T08:55:21.398Z,0.52
2023-04-21T08:56:21.413Z,0.53
2023-04-21T08:57:21.422Z,0.52
2023-04-21T08:58:21.447Z,0.53
2023-04-21T08:59:21.670Z,0.51
2023-04-21T09:00:21.502Z,0.52
2023-04-21T09:01:21.551Z,0.52
2023-04-21T09:02:21.689Z,0.52
2023-04-21T09:03:26.099Z,0.52
2023-04-21T09:04:22.658Z,0.52
2023-04-21T09:05:21.711Z,0.52
2023-04-21T09:06:21.706Z,0.51
2023-04-21T09:07:21.546Z,0.51
2023-04-21T09:08:21.510Z,0.52
2023-04-21T09:09:21.807Z,0.51
2023-04-21T09:10:21.520Z,0.51
2023-04-21T09:11:21.525Z,0.51
2023-04-21T09:12:21.484Z,0.50
2023-04-21T09:13:21.464Z,0.50
2023-04-21T09:14:21.479Z,0.52
2023-04-21T09:15:21.448Z,0.50
2023-04-21T09:16:22.268Z,0.51
2023-04-21T09:17:21.486Z,0.51
2023-04-21T09:18:21.435Z,0.51
2023-04-21T09:19:21.646Z,0.51
2023-04-21T09:20:21.429Z,0.51
2023-04-21T09:21:21.425Z,0.50
2023-04-21T09:22:21.468Z,0.51
2023-04-21T09:23:21.463Z,0.50
2023-04-21T09:24:21.478Z,0.50
2023-04-21T09:25:21.488Z,0.51
2023-04-21T09:26:21.517Z,0.52
2023-04-21T09:27:21.533Z,0.52
2023-04-21T09:28:21.593Z,0.50
2023-04-21T09:29:21.756Z,0.51
2023-04-21T09:30:21.601Z,0.53
2023-04-21T09:31:21.699Z,0.50
2023-04-21T09:32:22.003Z,0.52
2023-04-21T09:33:29.442Z,0.50
2023-04-21T09:34:22.673Z,0.50
2023-04-21T09:35:21.703Z,0.50
2023-04-21T09:36:21.657Z,0.50
2023-04-21T09:37:21.634Z,0.50
2023-04-21T09:38:21.636Z,0.51
2023-04-21T09:39:40.042Z,0.51
2023-04-21T09:40:22.654Z,0.51
2023-04-21T09:41:21.699Z,0.51
2023-04-21T09:42:21.609Z,0.52
2023-04-21T09:43:21.604Z,0.52
2023-04-21T09:44:21.855Z,0.52
2023-04-21T09:45:36.652Z,0.51
2023-04-21T09:46:22.679Z,0.52
2023-04-21T09:47:21.633Z,0.53
2023-04-21T09:48:22.529Z,0.54
2023-04-21T09:49:21.554Z,0.59
2023-04-21T09:50:36.201Z,0.68
2023-04-21T09:51:32.808Z,0.52
2023-04-21T09:52:22.573Z,0.52
2023-04-21T09:53:21.549Z,0.55
2023-04-21T09:54:28.986Z,0.60
2023-04-21T09:55:22.497Z,0.52
2023-04-21T09:56:21.536Z,0.56
2023-04-21T09:57:21.596Z,0.64
2023-04-21T09:58:21.550Z,0.81
2023-04-21T09:59:23.558Z,1.06
2023-04-21T10:00:21.504Z,1.13
2023-04-21T10:01:21.530Z,1.17
2023-04-21T10:02:21.805Z,1.18
2023-04-21T10:03:21.572Z,1.23
2023-04-21T10:04:21.962Z,1.23
2023-04-21T10:05:21.673Z,1.26
2023-04-21T10:06:21.610Z,1.28
2023-04-21T10:07:21.968Z,1.28
2023-04-21T10:08:21.733Z,1.16
2023-04-21T10:09:21.737Z,1.18
2023-04-21T10:10:21.763Z,1.15
2023-04-21T10:11:21.785Z,1.19
2023-04-21T10:12:21.791Z,1.19
2023-04-21T10:13:21.795Z,1.19
2023-04-21T10:14:22.002Z,1.22
2023-04-21T10:15:21.872Z,1.26
2023-04-21T10:16:21.910Z,1.30
2023-04-21T10:17:21.977Z,1.27
2023-04-21T10:18:21.953Z,1.28
2023-04-21T10:19:22.022Z,1.31
2023-04-21T10:20:22.015Z,1.32
2023-04-21T10:21:22.128Z,1.39
2023-04-21T10:22:22.362Z,1.42
2023-04-21T10:23:22.092Z,1.44
2023-04-21T10:24:22.302Z,1.41
2023-04-21T10:25:22.165Z,1.43
2023-04-21T10:26:22.149Z,1.45
2023-04-21T10:27:22.220Z,1.52
2023-04-21T10:28:22.210Z,1.51
2023-04-21T10:29:22.201Z,1.47
2023-04-21T10:30:22.293Z,1.45
2023-04-21T10:31:22.267Z,1.46
2023-04-21T10:32:22.316Z,1.42
2023-04-21T10:33:22.310Z,1.41
2023-04-21T10:34:22.702Z,1.48
2023-04-21T10:35:22.367Z,1.45
2023-04-21T10:36:22.373Z,1.43
2023-04-21T10:37:22.450Z,1.45
2023-04-21T10:38:22.450Z,1.50
2023-04-21T10:39:22.439Z,1.46
2023-04-21T10:40:32.983Z,1.47
2023-04-21T10:41:23.433Z,1.47
2023-04-21T10:42:22.495Z,1.42
2023-04-21T10:43:22.405Z,1.40
2023-04-21T10:44:22.603Z,1.35
2023-04-21T10:45:22.513Z,1.36
2023-04-21T10:46:22.454Z,1.36
2023-04-21T10:47:22.469Z,1.22
2023-04-21T10:48:22.416Z,1.29
2023-04-21T10:49:22.394Z,1.27
2023-04-21T10:50:22.453Z,1.23
2023-04-21T10:51:22.360Z,1.09
2023-04-21T10:52:22.396Z,1.09
2023-04-21T10:53:22.396Z,1.13
2023-04-21T10:54:22.482Z,1.01
2023-04-21T10:55:22.377Z,0.95
2023-04-21T10:56:22.364Z,0.91
2023-04-21T10:57:22.376Z,0.97
2023-04-21T10:58:22.389Z,0.90
2023-04-21T10:59:22.398Z,0.87
2023-04-21T11:00:22.402Z,0.75
2023-04-21T11:01:22.470Z,0.80
2023-04-21T11:02:22.569Z,0.78
2023-04-21T11:03:22.682Z,0.69
2023-04-21T11:04:23.365Z,0.74
2023-04-21T11:05:22.474Z,0.61
2023-04-21T11:06:22.518Z,0.72
2023-04-21T11:07:22.555Z,0.64
2023-04-21T11:08:22.552Z,0.66
2023-04-21T11:09:22.612Z,0.63
2023-04-21T11:10:22.617Z,0.51
2023-04-21T11:11:22.612Z,0.67
2023-04-21T11:12:22.636Z,0.61
2023-04-21T11:13:22.687Z,0.57
2023-04-21T11:14:22.698Z,0.51
2023-04-21T11:15:22.697Z,0.58
2023-04-21T11:16:22.844Z,0.56
2023-04-21T11:17:22.766Z,0.55
2023-04-21T11:18:22.800Z,0.58
2023-04-21T11:19:22.787Z,0.54
2023-04-21T11:20:22.830Z,0.60
2023-04-21T11:21:22.856Z,0.59
2023-04-21T11:22:22.868Z,0.56
2023-04-21T11:23:22.912Z,0.50
2023-04-21T11:24:22.916Z,0.55
2023-04-21T11:25:22.912Z,0.54
2023-04-21T11:26:22.996Z,0.61
2023-04-21T11:27:22.960Z,0.55
2023-04-21T11:28:23.004Z,0.64
2023-04-21T11:29:23.000Z,0.58
2023-04-21T11:30:23.051Z,0.50
2023-04-21T11:31:23.103Z,0.59
2023-04-21T11:32:23.062Z,0.65
2023-04-21T11:33:23.161Z,0.61
2023-04-21T11:34:23.115Z,0.64
2023-04-21T11:35:23.142Z,0.50
2023-04-21T11:36:23.157Z,0.63
2023-04-21T11:37:23.210Z,0.57
2023-04-21T11:38:23.210Z,0.64
2023-04-21T11:39:23.283Z,0.50
2023-04-21T11:40:23.252Z,0.59
2023-04-21T11:41:23.310Z,0.49
2023-04-21T11:42:23.360Z,0.58
2023-04-21T11:43:23.381Z,0.61
2023-04-21T11:44:23.418Z,0.68
2023-04-21T11:45:23.473Z,0.55
2023-04-21T11:46:23.592Z,0.61
2023-04-21T11:47:23.582Z,0.57
2023-04-21T11:48:23.558Z,0.50
2023-04-21T11:49:23.628Z,0.58
2023-04-21T11:50:23.686Z,0.62
2023-04-21T11:51:23.705Z,0.57
2023-04-21T11:52:23.719Z,0.62
2023-04-21T11:53:23.798Z,0.58
2023-04-21T11:54:23.784Z,0.51
2023-04-21T11:55:23.806Z,0.58
2023-04-21T11:56:23.855Z,0.69
2023-04-21T11:57:23.856Z,0.58
2023-04-21T11:58:23.894Z,0.55
2023-04-21T11:59:25.654Z,0.54
2023-04-21T12:00:24.464Z,0.57
2023-04-21T12:01:23.969Z,0.63
2023-04-21T12:02:24.124Z,0.62
2023-04-21T12:03:24.096Z,0.59
2023-04-21T12:04:24.178Z,0.57
2023-04-21T12:05:24.025Z,0.60
2023-04-21T12:06:24.174Z,0.57
2023-04-21T12:07:24.134Z,0.56
2023-04-21T12:08:24.093Z,0.72
2023-04-21T12:09:24.099Z,0.57
2023-04-21T12:10:24.160Z,0.79
2023-04-21T12:11:24.184Z,0.66
2023-04-21T12:12:24.198Z,0.62
2023-04-21T12:13:24.209Z,0.63
2023-04-21T12:14:24.190Z,0.65
2023-04-21T12:15:24.271Z,0.79
2023-04-21T12:16:24.315Z,0.67
2023-04-21T12:17:24.326Z,0.71
2023-04-21T12:18:24.313Z,0.71
2023-04-21T12:19:24.318Z,0.68
2023-04-21T12:20:24.360Z,0.72
2023-04-21T12:21:24.370Z,0.78
2023-04-21T12:22:24.349Z,0.68
2023-04-21T12:23:24.376Z,0.70
2023-04-21T12:24:24.439Z,0.63
2023-04-21T12:25:24.442Z,0.83
2023-04-21T12:26:24.473Z,0.68
2023-04-21T12:27:24.481Z,0.64
2023-04-21T12:28:24.565Z,0.73
2023-04-21T12:29:24.593Z,0.68
2023-04-21T12:30:24.584Z,0.72
2023-04-21T12:31:24.594Z,0.69
2023-04-21T12:32:24.579Z,0.71
2023-04-21T12:33:24.624Z,0.92
2023-04-21T12:34:24.639Z,0.66
2023-04-21T12:35:24.650Z,0.75
2023-04-21T12:36:24.666Z,0.66
2023-04-21T12:37:24.647Z,0.71
2023-04-21T12:38:24.736Z,0.78
2023-04-21T12:39:24.696Z,0.72
2023-04-21T12:40:24.766Z,0.76
2023-04-21T12:41:24.800Z,0.76
2023-04-21T12:42:24.800Z,0.86
2023-04-21T12:43:24.813Z,0.72
2023-04-21T12:44:24.811Z,0.75
2023-04-21T12:45:24.891Z,0.71
2023-04-21T12:46:25.167Z,0.85
2023-04-21T12:47:24.988Z,0.64
2023-04-21T12:48:24.910Z,0.78
2023-04-21T12:49:24.938Z,0.80
2023-04-21T12:50:24.949Z,0.85
2023-04-21T12:51:24.976Z,0.82
2023-04-21T12:52:24.981Z,0.85
2023-04-21T12:53:24.957Z,0.91
2023-04-21T12:54:24.999Z,0.94
2023-04-21T12:55:25.001Z,1.08
2023-04-21T12:56:24.994Z,1.06
2023-04-21T12:57:25.015Z,1.07
2023-04-21T12:58:25.010Z,1.20
2023-04-21T12:59:25.052Z,1.23
2023-04-21T13:00:25.018Z,1.13
2023-04-21T13:01:32.127Z,1.23
2023-04-21T13:02:25.104Z,1.23
2023-04-21T13:03:25.217Z,1.23
2023-04-21T13:04:25.186Z,1.31
2023-04-21T13:05:25.028Z,1.22
2023-04-21T13:06:25.022Z,1.31
2023-04-21T13:07:24.999Z,1.33
2023-04-21T13:08:25.004Z,1.25
2023-04-21T13:09:25.012Z,1.38
2023-04-21T13:10:24.968Z,1.25
2023-04-21T13:11:24.966Z,1.32
2023-04-21T13:12:24.971Z,1.44
2023-04-21T13:13:24.952Z,1.36
2023-04-21T13:14:24.972Z,1.50
2023-04-21T13:15:24.943Z,1.55
2023-04-21T13:16:25.303Z,1.74
2023-04-21T13:17:24.978Z,1.68
2023-04-21T13:18:24.923Z,1.54